sensor_id;sensor_type;location;lat;lon;timestamp;temperature;humidity
11615;DHT22;5863;52.832;4.758;2024-03-02T00:00:15;8.70;99.90
11615;DHT22;5863;52.832;4.758;2024-03-02T00:02:42;8.70;99.90
11615;DHT22;5863;52.832;4.758;2024-03-02T00:05:11;8.70;99.90
11615;DHT22;5863;52.832;4.758;2024-03-02T00:07:38;8.70;99.90
11615;DHT22;5863;52.832;4.758;2024-03-02T00:10:09;8.80;99.90
11615;DHT22;5863;52.832;4.758;2024-03-02T00:12:37;8.80;99.90
11615;DHT22;5863;52.832;4.758;2024-03-02T00:15:15;8.80;99.90
11615;DHT22;5863;52.832;4.758;2024-03-02T00:17:46;8.80;99.90
11615;DHT22;5863;52.832;4.758;2024-03-02T00:20:17;8.80;99.90
11615;DHT22;5863;52.832;4.758;2024-03-02T00:22:46;8.80;99.90
11615;DHT22;5863;52.832;4.758;2024-03-02T00:25:14;8.80;99.90
11615;DHT22;5863;52.832;4.758;2024-03-02T00:27:41;8.90;99.90
11615;DHT22;5863;52.832;4.758;2024-03-02T00:30:35;8.90;99.90
11615;DHT22;5863;52.832;4.758;2024-03-02T00:33:06;8.90;99.90
11615;DHT22;5863;52.832;4.758;2024-03-02T00:35:33;9.00;99.90
11615;DHT22;5863;52.832;4.758;2024-03-02T00:38:03;9.00;99.90
11615;DHT22;5863;52.832;4.758;2024-03-02T00:40:32;9.00;99.90
11615;DHT22;5863;52.832;4.758;2024-03-02T00:43:00;9.00;99.90
11615;DHT22;5863;52.832;4.758;2024-03-02T00:45:29;9.00;99.90
11615;DHT22;5863;52.832;4.758;2024-03-02T00:47:56;9.00;99.90
11615;DHT22;5863;52.832;4.758;2024-03-02T00:50:23;9.00;99.90
11615;DHT22;5863;52.832;4.758;2024-03-02T00:52:49;9.00;99.90
11615;DHT22;5863;52.832;4.758;2024-03-02T00:55:16;8.90;99.90
11615;DHT22;5863;52.832;4.758;2024-03-02T00:57:45;8.80;99.90
11615;DHT22;5863;52.832;4.758;2024-03-02T01:00:13;8.80;99.90
11615;DHT22;5863;52.832;4.758;2024-03-02T01:02:40;8.70;99.90
11615;DHT22;5863;52.832;4.758;2024-03-02T01:05:09;8.70;99.90
11615;DHT22;5863;52.832;4.758;2024-03-02T01:07:38;8.70;99.90
11615;DHT22;5863;52.832;4.758;2024-03-02T01:10:05;8.60;99.90
11615;DHT22;5863;52.832;4.758;2024-03-02T01:12:33;8.60;99.90
11615;DHT22;5863;52.832;4.758;2024-03-02T01:15:01;8.50;99.90
11615;DHT22;5863;52.832;4.758;2024-03-02T01:17:29;8.50;99.90
11615;DHT22;5863;52.832;4.758;2024-03-02T01:19:56;8.50;99.90
11615;DHT22;5863;52.832;4.758;2024-03-02T01:22:23;8.40;99.90
11615;DHT22;5863;52.832;4.758;2024-03-02T01:24:51;8.40;99.90
11615;DHT22;5863;52.832;4.758;2024-03-02T01:27:17;8.40;99.90
11615;DHT22;5863;52.832;4.758;2024-03-02T01:29:45;8.30;99.90
11615;DHT22;5863;52.832;4.758;2024-03-02T01:32:13;8.30;99.90
11615;DHT22;5863;52.832;4.758;2024-03-02T01:34:41;8.30;99.90
11615;DHT22;5863;52.832;4.758;2024-03-02T01:37:08;8.30;99.90
11615;DHT22;5863;52.832;4.758;2024-03-02T01:39:35;8.30;99.90
11615;DHT22;5863;52.832;4.758;2024-03-02T01:42:02;8.30;99.90
11615;DHT22;5863;52.832;4.758;2024-03-02T01:44:29;8.20;99.90
11615;DHT22;5863;52.832;4.758;2024-03-02T01:46:56;8.20;99.90
11615;DHT22;5863;52.832;4.758;2024-03-02T01:49:24;8.20;99.90
11615;DHT22;5863;52.832;4.758;2024-03-02T01:51:51;8.10;99.90
11615;DHT22;5863;52.832;4.758;2024-03-02T01:54:18;8.10;99.90
11615;DHT22;5863;52.832;4.758;2024-03-02T01:56:45;8.10;99.90
11615;DHT22;5863;52.832;4.758;2024-03-02T01:59:12;8.10;99.90
11615;DHT22;5863;52.832;4.758;2024-03-02T02:01:39;8.00;99.90
11615;DHT22;5863;52.832;4.758;2024-03-02T02:04:06;8.00;99.90
11615;DHT22;5863;52.832;4.758;2024-03-02T02:06:34;8.10;99.90
11615;DHT22;5863;52.832;4.758;2024-03-02T02:09:01;8.00;99.90
11615;DHT22;5863;52.832;4.758;2024-03-02T02:11:28;8.00;99.90
11615;DHT22;5863;52.832;4.758;2024-03-02T02:13:55;8.00;99.90
11615;DHT22;5863;52.832;4.758;2024-03-02T02:16:22;8.10;99.90
11615;DHT22;5863;52.832;4.758;2024-03-02T02:18:49;8.10;99.90
11615;DHT22;5863;52.832;4.758;2024-03-02T02:21:15;8.10;99.90
11615;DHT22;5863;52.832;4.758;2024-03-02T02:23:44;8.20;99.90
11615;DHT22;5863;52.832;4.758;2024-03-02T02:26:13;8.20;99.90
11615;DHT22;5863;52.832;4.758;2024-03-02T02:28:40;8.20;99.90
11615;DHT22;5863;52.832;4.758;2024-03-02T02:31:12;8.20;99.90
11615;DHT22;5863;52.832;4.758;2024-03-02T02:33:39;8.10;99.90
11615;DHT22;5863;52.832;4.758;2024-03-02T02:36:06;8.10;99.90
11615;DHT22;5863;52.832;4.758;2024-03-02T02:38:37;8.00;99.90
11615;DHT22;5863;52.832;4.758;2024-03-02T02:41:06;8.00;99.90
11615;DHT22;5863;52.832;4.758;2024-03-02T02:43:33;7.90;99.90
11615;DHT22;5863;52.832;4.758;2024-03-02T02:46:00;7.90;99.90
11615;DHT22;5863;52.832;4.758;2024-03-02T02:48:27;7.80;99.90
11615;DHT22;5863;52.832;4.758;2024-03-02T02:50:53;7.80;99.90
11615;DHT22;5863;52.832;4.758;2024-03-02T02:53:20;7.80;99.90
11615;DHT22;5863;52.832;4.758;2024-03-02T02:55:47;7.80;99.90
11615;DHT22;5863;52.832;4.758;2024-03-02T02:58:15;7.80;99.90
11615;DHT22;5863;52.832;4.758;2024-03-02T03:00:42;7.80;99.90
11615;DHT22;5863;52.832;4.758;2024-03-02T03:03:09;7.80;99.90
11615;DHT22;5863;52.832;4.758;2024-03-02T03:05:36;7.80;99.90
11615;DHT22;5863;52.832;4.758;2024-03-02T03:08:03;7.70;99.90
11615;DHT22;5863;52.832;4.758;2024-03-02T03:10:30;7.70;99.90
11615;DHT22;5863;52.832;4.758;2024-03-02T03:12:57;7.70;99.90
11615;DHT22;5863;52.832;4.758;2024-03-02T03:15:25;7.70;99.90
11615;DHT22;5863;52.832;4.758;2024-03-02T03:17:52;7.70;99.90
11615;DHT22;5863;52.832;4.758;2024-03-02T03:20:19;7.70;99.90
11615;DHT22;5863;52.832;4.758;2024-03-02T03:22:47;7.80;99.90
11615;DHT22;5863;52.832;4.758;2024-03-02T03:25:13;7.60;99.90
11615;DHT22;5863;52.832;4.758;2024-03-02T03:27:40;7.60;99.90
11615;DHT22;5863;52.832;4.758;2024-03-02T03:30:08;7.60;99.90
11615;DHT22;5863;52.832;4.758;2024-03-02T03:32:36;7.60;99.90
11615;DHT22;5863;52.832;4.758;2024-03-02T03:35:04;7.60;99.90
11615;DHT22;5863;52.832;4.758;2024-03-02T03:37:31;7.60;99.90
11615;DHT22;5863;52.832;4.758;2024-03-02T03:39:59;7.50;99.90
11615;DHT22;5863;52.832;4.758;2024-03-02T03:42:26;7.60;99.90
11615;DHT22;5863;52.832;4.758;2024-03-02T03:44:53;7.60;99.90
11615;DHT22;5863;52.832;4.758;2024-03-02T03:47:20;7.60;99.90
11615;DHT22;5863;52.832;4.758;2024-03-02T03:49:48;7.60;99.90
11615;DHT22;5863;52.832;4.758;2024-03-02T03:52:15;7.60;99.90
11615;DHT22;5863;52.832;4.758;2024-03-02T03:54:42;7.60;99.90
11615;DHT22;5863;52.832;4.758;2024-03-02T03:57:10;7.50;99.90
11615;DHT22;5863;52.832;4.758;2024-03-02T03:59:37;7.50;99.90
11615;DHT22;5863;52.832;4.758;2024-03-02T04:02:03;7.50;99.90
11615;DHT22;5863;52.832;4.758;2024-03-02T04:04:30;7.50;99.90
11615;DHT22;5863;52.832;4.758;2024-03-02T04:07:00;7.50;99.90
11615;DHT22;5863;52.832;4.758;2024-03-02T04:09:27;7.50;99.90
11615;DHT22;5863;52.832;4.758;2024-03-02T04:11:54;7.40;99.90
11615;DHT22;5863;52.832;4.758;2024-03-02T04:14:21;7.50;99.90
11615;DHT22;5863;52.832;4.758;2024-03-02T04:16:47;7.40;99.90
11615;DHT22;5863;52.832;4.758;2024-03-02T04:19:14;7.40;99.90
11615;DHT22;5863;52.832;4.758;2024-03-02T04:21:41;7.40;99.90
11615;DHT22;5863;52.832;4.758;2024-03-02T04:24:09;7.40;99.90
11615;DHT22;5863;52.832;4.758;2024-03-02T04:26:36;7.40;99.90
11615;DHT22;5863;52.832;4.758;2024-03-02T04:29:03;7.40;99.90
11615;DHT22;5863;52.832;4.758;2024-03-02T04:31:30;7.40;99.90
11615;DHT22;5863;52.832;4.758;2024-03-02T04:33:57;7.40;99.90
11615;DHT22;5863;52.832;4.758;2024-03-02T04:36:23;7.40;99.90
11615;DHT22;5863;52.832;4.758;2024-03-02T04:38:50;7.40;99.90
11615;DHT22;5863;52.832;4.758;2024-03-02T04:41:18;7.40;99.90
11615;DHT22;5863;52.832;4.758;2024-03-02T04:43:45;7.40;99.90
11615;DHT22;5863;52.832;4.758;2024-03-02T04:46:12;7.40;99.90
11615;DHT22;5863;52.832;4.758;2024-03-02T04:48:39;7.40;99.90
11615;DHT22;5863;52.832;4.758;2024-03-02T04:51:06;7.40;99.90
11615;DHT22;5863;52.832;4.758;2024-03-02T04:53:33;7.40;99.90
11615;DHT22;5863;52.832;4.758;2024-03-02T04:55:59;7.40;99.90
11615;DHT22;5863;52.832;4.758;2024-03-02T04:58:57;7.30;99.90
11615;DHT22;5863;52.832;4.758;2024-03-02T05:01:23;7.40;99.90
11615;DHT22;5863;52.832;4.758;2024-03-02T05:03:50;7.30;99.90
11615;DHT22;5863;52.832;4.758;2024-03-02T05:06:17;7.30;99.90
11615;DHT22;5863;52.832;4.758;2024-03-02T05:08:44;7.30;99.90
11615;DHT22;5863;52.832;4.758;2024-03-02T05:11:11;7.30;99.90
11615;DHT22;5863;52.832;4.758;2024-03-02T05:14:15;7.30;99.90
11615;DHT22;5863;52.832;4.758;2024-03-02T05:16:41;7.30;99.90
11615;DHT22;5863;52.832;4.758;2024-03-02T05:19:08;7.20;99.90
11615;DHT22;5863;52.832;4.758;2024-03-02T05:21:35;7.30;99.90
11615;DHT22;5863;52.832;4.758;2024-03-02T05:24:02;7.20;99.90
11615;DHT22;5863;52.832;4.758;2024-03-02T05:26:29;7.20;99.90
11615;DHT22;5863;52.832;4.758;2024-03-02T05:28:56;7.20;99.90
11615;DHT22;5863;52.832;4.758;2024-03-02T05:31:24;7.20;99.90
11615;DHT22;5863;52.832;4.758;2024-03-02T05:33:51;7.10;99.90
11615;DHT22;5863;52.832;4.758;2024-03-02T05:36:18;7.20;99.90
11615;DHT22;5863;52.832;4.758;2024-03-02T05:38:46;7.10;99.90
11615;DHT22;5863;52.832;4.758;2024-03-02T05:41:13;7.10;99.90
11615;DHT22;5863;52.832;4.758;2024-03-02T05:43:39;7.00;99.90
11615;DHT22;5863;52.832;4.758;2024-03-02T05:46:06;7.00;99.90
11615;DHT22;5863;52.832;4.758;2024-03-02T05:48:34;7.00;99.90
11615;DHT22;5863;52.832;4.758;2024-03-02T05:51:01;7.00;99.90
11615;DHT22;5863;52.832;4.758;2024-03-02T05:53:28;7.10;99.90
11615;DHT22;5863;52.832;4.758;2024-03-02T05:55:55;7.00;99.90
11615;DHT22;5863;52.832;4.758;2024-03-02T05:58:22;6.90;99.90
11615;DHT22;5863;52.832;4.758;2024-03-02T06:00:59;7.00;99.90
11615;DHT22;5863;52.832;4.758;2024-03-02T06:03:26;7.00;99.90
11615;DHT22;5863;52.832;4.758;2024-03-02T06:05:55;7.00;99.90
11615;DHT22;5863;52.832;4.758;2024-03-02T06:08:22;7.00;99.90
11615;DHT22;5863;52.832;4.758;2024-03-02T06:10:48;7.00;99.90
11615;DHT22;5863;52.832;4.758;2024-03-02T06:13:15;7.00;99.90
11615;DHT22;5863;52.832;4.758;2024-03-02T06:15:42;6.90;99.90
11615;DHT22;5863;52.832;4.758;2024-03-02T06:18:09;6.90;99.90
11615;DHT22;5863;52.832;4.758;2024-03-02T06:20:36;6.90;99.90
11615;DHT22;5863;52.832;4.758;2024-03-02T06:23:04;6.90;99.90
11615;DHT22;5863;52.832;4.758;2024-03-02T06:25:31;6.90;99.90
11615;DHT22;5863;52.832;4.758;2024-03-02T06:27:58;6.90;99.90
11615;DHT22;5863;52.832;4.758;2024-03-02T06:30:25;6.90;99.90
11615;DHT22;5863;52.832;4.758;2024-03-02T06:32:52;6.80;99.90
11615;DHT22;5863;52.832;4.758;2024-03-02T06:35:19;6.80;99.90
11615;DHT22;5863;52.832;4.758;2024-03-02T06:37:46;6.80;99.90
11615;DHT22;5863;52.832;4.758;2024-03-02T06:40:14;6.90;99.90
11615;DHT22;5863;52.832;4.758;2024-03-02T06:42:41;6.90;99.90
11615;DHT22;5863;52.832;4.758;2024-03-02T06:45:08;6.90;99.90
11615;DHT22;5863;52.832;4.758;2024-03-02T06:47:35;6.80;99.90
11615;DHT22;5863;52.832;4.758;2024-03-02T06:50:02;6.80;99.90
11615;DHT22;5863;52.832;4.758;2024-03-02T06:52:29;6.80;99.90
11615;DHT22;5863;52.832;4.758;2024-03-02T06:54:56;6.90;99.90
11615;DHT22;5863;52.832;4.758;2024-03-02T06:57:24;7.00;99.90
11615;DHT22;5863;52.832;4.758;2024-03-02T06:59:51;7.00;99.90
11615;DHT22;5863;52.832;4.758;2024-03-02T07:02:20;7.10;99.90
11615;DHT22;5863;52.832;4.758;2024-03-02T07:04:48;7.20;99.90
11615;DHT22;5863;52.832;4.758;2024-03-02T07:07:16;7.30;99.90
11615;DHT22;5863;52.832;4.758;2024-03-02T07:09:43;7.40;99.90
11615;DHT22;5863;52.832;4.758;2024-03-02T07:12:10;7.50;99.90
11615;DHT22;5863;52.832;4.758;2024-03-02T07:14:38;7.50;99.90
11615;DHT22;5863;52.832;4.758;2024-03-02T07:17:33;7.60;99.90
11615;DHT22;5863;52.832;4.758;2024-03-02T07:20:01;7.60;99.90
11615;DHT22;5863;52.832;4.758;2024-03-02T07:22:28;7.70;99.90
11615;DHT22;5863;52.832;4.758;2024-03-02T07:24:55;7.80;99.90
11615;DHT22;5863;52.832;4.758;2024-03-02T07:27:22;7.80;99.90
11615;DHT22;5863;52.832;4.758;2024-03-02T07:29:50;7.80;99.90
11615;DHT22;5863;52.832;4.758;2024-03-02T07:32:18;7.90;99.90
11615;DHT22;5863;52.832;4.758;2024-03-02T07:34:45;7.90;99.90
11615;DHT22;5863;52.832;4.758;2024-03-02T07:37:12;7.90;99.90
11615;DHT22;5863;52.832;4.758;2024-03-02T07:39:39;7.90;99.90
11615;DHT22;5863;52.832;4.758;2024-03-02T07:42:06;7.90;99.90
11615;DHT22;5863;52.832;4.758;2024-03-02T07:44:33;7.90;99.90
11615;DHT22;5863;52.832;4.758;2024-03-02T07:47:01;7.90;99.90
11615;DHT22;5863;52.832;4.758;2024-03-02T07:49:28;7.90;99.90
11615;DHT22;5863;52.832;4.758;2024-03-02T07:51:55;7.90;99.90
11615;DHT22;5863;52.832;4.758;2024-03-02T07:54:22;7.90;99.90
11615;DHT22;5863;52.832;4.758;2024-03-02T07:56:49;7.90;99.90
11615;DHT22;5863;52.832;4.758;2024-03-02T07:59:16;8.00;99.90
11615;DHT22;5863;52.832;4.758;2024-03-02T08:01:43;8.10;99.90
11615;DHT22;5863;52.832;4.758;2024-03-02T08:04:11;8.10;99.90
11615;DHT22;5863;52.832;4.758;2024-03-02T08:06:38;8.30;99.90
11615;DHT22;5863;52.832;4.758;2024-03-02T08:09:05;8.30;99.90
11615;DHT22;5863;52.832;4.758;2024-03-02T08:11:35;8.40;99.90
11615;DHT22;5863;52.832;4.758;2024-03-02T08:14:02;8.60;99.90
11615;DHT22;5863;52.832;4.758;2024-03-02T08:16:29;8.70;99.90
11615;DHT22;5863;52.832;4.758;2024-03-02T08:18:56;8.80;99.90
11615;DHT22;5863;52.832;4.758;2024-03-02T08:21:25;8.90;99.90
11615;DHT22;5863;52.832;4.758;2024-03-02T08:23:56;8.90;99.90
11615;DHT22;5863;52.832;4.758;2024-03-02T08:26:23;9.00;99.90
11615;DHT22;5863;52.832;4.758;2024-03-02T08:28:50;9.10;99.90
11615;DHT22;5863;52.832;4.758;2024-03-02T08:31:17;9.20;99.90
11615;DHT22;5863;52.832;4.758;2024-03-02T08:33:43;9.20;99.90
11615;DHT22;5863;52.832;4.758;2024-03-02T08:36:10;9.20;99.90
11615;DHT22;5863;52.832;4.758;2024-03-02T08:38:39;9.20;99.90
11615;DHT22;5863;52.832;4.758;2024-03-02T08:41:06;9.20;99.90
11615;DHT22;5863;52.832;4.758;2024-03-02T08:43:34;9.20;99.90
11615;DHT22;5863;52.832;4.758;2024-03-02T08:46:01;9.30;99.90
11615;DHT22;5863;52.832;4.758;2024-03-02T08:48:28;9.40;99.90
11615;DHT22;5863;52.832;4.758;2024-03-02T08:50:55;9.40;99.90
11615;DHT22;5863;52.832;4.758;2024-03-02T08:53:22;9.40;99.90
11615;DHT22;5863;52.832;4.758;2024-03-02T08:55:50;9.40;99.90
11615;DHT22;5863;52.832;4.758;2024-03-02T08:58:17;9.40;99.90
11615;DHT22;5863;52.832;4.758;2024-03-02T09:00:44;9.40;99.90
11615;DHT22;5863;52.832;4.758;2024-03-02T09:03:11;9.40;99.90
11615;DHT22;5863;52.832;4.758;2024-03-02T09:05:38;9.50;99.90
11615;DHT22;5863;52.832;4.758;2024-03-02T09:08:05;9.50;99.90
11615;DHT22;5863;52.832;4.758;2024-03-02T09:10:33;9.50;99.90
11615;DHT22;5863;52.832;4.758;2024-03-02T09:13:01;9.50;99.90
11615;DHT22;5863;52.832;4.758;2024-03-02T09:15:28;9.50;99.90
11615;DHT22;5863;52.832;4.758;2024-03-02T09:17:55;9.60;99.90
11615;DHT22;5863;52.832;4.758;2024-03-02T09:20:22;9.60;99.90
11615;DHT22;5863;52.832;4.758;2024-03-02T09:22:49;9.70;99.90
11615;DHT22;5863;52.832;4.758;2024-03-02T09:25:16;9.70;99.90
11615;DHT22;5863;52.832;4.758;2024-03-02T09:27:43;9.70;99.90
11615;DHT22;5863;52.832;4.758;2024-03-02T09:30:12;9.70;99.90
11615;DHT22;5863;52.832;4.758;2024-03-02T09:32:39;9.80;99.90
11615;DHT22;5863;52.832;4.758;2024-03-02T09:35:07;9.90;99.90
11615;DHT22;5863;52.832;4.758;2024-03-02T09:37:34;9.90;99.90
11615;DHT22;5863;52.832;4.758;2024-03-02T09:40:01;9.90;99.90
11615;DHT22;5863;52.832;4.758;2024-03-02T09:42:28;10.00;99.90
11615;DHT22;5863;52.832;4.758;2024-03-02T09:44:55;10.00;99.90
11615;DHT22;5863;52.832;4.758;2024-03-02T09:47:24;10.10;99.90
11615;DHT22;5863;52.832;4.758;2024-03-02T09:49:51;10.00;99.90
11615;DHT22;5863;52.832;4.758;2024-03-02T09:52:19;10.00;99.90
11615;DHT22;5863;52.832;4.758;2024-03-02T09:54:47;10.10;99.90
11615;DHT22;5863;52.832;4.758;2024-03-02T09:57:15;10.10;99.90
11615;DHT22;5863;52.832;4.758;2024-03-02T09:59:42;10.20;99.90
11615;DHT22;5863;52.832;4.758;2024-03-02T10:02:11;10.30;99.90
11615;DHT22;5863;52.832;4.758;2024-03-02T10:04:39;10.40;99.90
11615;DHT22;5863;52.832;4.758;2024-03-02T10:07:13;10.60;99.90
11615;DHT22;5863;52.832;4.758;2024-03-02T10:09:40;10.70;99.90
11615;DHT22;5863;52.832;4.758;2024-03-02T10:12:09;10.80;99.90
11615;DHT22;5863;52.832;4.758;2024-03-02T10:14:37;10.90;99.90
11615;DHT22;5863;52.832;4.758;2024-03-02T10:17:05;10.90;99.90
11615;DHT22;5863;52.832;4.758;2024-03-02T10:19:33;11.00;99.90
11615;DHT22;5863;52.832;4.758;2024-03-02T10:22:02;11.10;99.90
11615;DHT22;5863;52.832;4.758;2024-03-02T10:24:36;11.20;99.90
11615;DHT22;5863;52.832;4.758;2024-03-02T10:27:07;11.30;99.90
11615;DHT22;5863;52.832;4.758;2024-03-02T10:29:37;11.40;99.90
11615;DHT22;5863;52.832;4.758;2024-03-02T10:32:05;11.50;99.90
11615;DHT22;5863;52.832;4.758;2024-03-02T10:34:35;11.60;99.90
11615;DHT22;5863;52.832;4.758;2024-03-02T10:37:04;11.60;99.90
11615;DHT22;5863;52.832;4.758;2024-03-02T10:39:31;11.70;99.90
11615;DHT22;5863;52.832;4.758;2024-03-02T10:42:02;11.80;99.90
11615;DHT22;5863;52.832;4.758;2024-03-02T10:44:30;11.90;99.90
11615;DHT22;5863;52.832;4.758;2024-03-02T10:46:59;12.00;99.90
11615;DHT22;5863;52.832;4.758;2024-03-02T10:49:27;12.10;99.90
11615;DHT22;5863;52.832;4.758;2024-03-02T10:51:55;12.10;99.90
11615;DHT22;5863;52.832;4.758;2024-03-02T10:54:23;12.20;99.90
11615;DHT22;5863;52.832;4.758;2024-03-02T10:56:56;12.30;99.90
11615;DHT22;5863;52.832;4.758;2024-03-02T10:59:27;12.30;99.90
11615;DHT22;5863;52.832;4.758;2024-03-02T11:01:57;12.40;99.90
11615;DHT22;5863;52.832;4.758;2024-03-02T11:04:26;12.50;99.90
11615;DHT22;5863;52.832;4.758;2024-03-02T11:06:58;12.50;99.90
11615;DHT22;5863;52.832;4.758;2024-03-02T11:09:28;12.60;99.90
11615;DHT22;5863;52.832;4.758;2024-03-02T11:12:03;12.60;99.90
11615;DHT22;5863;52.832;4.758;2024-03-02T11:14:31;12.60;99.90
11615;DHT22;5863;52.832;4.758;2024-03-02T11:17:00;12.60;99.90
11615;DHT22;5863;52.832;4.758;2024-03-02T11:19:29;12.60;99.90
11615;DHT22;5863;52.832;4.758;2024-03-02T11:21:57;12.70;99.90
11615;DHT22;5863;52.832;4.758;2024-03-02T11:24:35;12.80;99.90
11615;DHT22;5863;52.832;4.758;2024-03-02T11:27:03;12.90;99.90
11615;DHT22;5863;52.832;4.758;2024-03-02T11:29:43;12.90;99.90
11615;DHT22;5863;52.832;4.758;2024-03-02T11:32:15;13.00;99.90
11615;DHT22;5863;52.832;4.758;2024-03-02T11:34:42;13.10;99.90
11615;DHT22;5863;52.832;4.758;2024-03-02T11:37:12;13.10;99.90
11615;DHT22;5863;52.832;4.758;2024-03-02T11:39:42;13.20;99.90
11615;DHT22;5863;52.832;4.758;2024-03-02T11:42:11;13.30;99.90
11615;DHT22;5863;52.832;4.758;2024-03-02T11:44:40;13.40;99.90
11615;DHT22;5863;52.832;4.758;2024-03-02T11:47:08;13.40;99.90
11615;DHT22;5863;52.832;4.758;2024-03-02T11:49:38;13.50;99.90
11615;DHT22;5863;52.832;4.758;2024-03-02T11:52:06;13.50;99.90
11615;DHT22;5863;52.832;4.758;2024-03-02T11:54:34;13.50;99.90
11615;DHT22;5863;52.832;4.758;2024-03-02T11:57:03;13.50;99.90
11615;DHT22;5863;52.832;4.758;2024-03-02T11:59:30;13.60;99.90
11615;DHT22;5863;52.832;4.758;2024-03-02T12:01:58;13.70;99.90
11615;DHT22;5863;52.832;4.758;2024-03-02T12:04:26;13.70;99.90
11615;DHT22;5863;52.832;4.758;2024-03-02T12:06:56;13.70;99.90
11615;DHT22;5863;52.832;4.758;2024-03-02T12:09:25;13.70;99.90
11615;DHT22;5863;52.832;4.758;2024-03-02T12:12:03;13.60;99.90
11615;DHT22;5863;52.832;4.758;2024-03-02T12:14:31;13.60;99.90
11615;DHT22;5863;52.832;4.758;2024-03-02T12:16:57;13.70;99.90
11615;DHT22;5863;52.832;4.758;2024-03-02T12:19:25;13.80;99.90
11615;DHT22;5863;52.832;4.758;2024-03-02T12:21:53;13.90;99.90
11615;DHT22;5863;52.832;4.758;2024-03-02T12:24:20;13.90;99.90
11615;DHT22;5863;52.832;4.758;2024-03-02T12:26:49;13.90;99.90
11615;DHT22;5863;52.832;4.758;2024-03-02T12:29:18;13.90;99.90
11615;DHT22;5863;52.832;4.758;2024-03-02T12:31:47;13.90;99.90
11615;DHT22;5863;52.832;4.758;2024-03-02T12:34:15;14.00;99.90
11615;DHT22;5863;52.832;4.758;2024-03-02T12:36:43;14.00;99.90
11615;DHT22;5863;52.832;4.758;2024-03-02T12:39:13;14.00;99.90
11615;DHT22;5863;52.832;4.758;2024-03-02T12:41:40;14.00;99.90
11615;DHT22;5863;52.832;4.758;2024-03-02T12:44:07;14.00;99.90
11615;DHT22;5863;52.832;4.758;2024-03-02T12:46:35;14.10;99.90
11615;DHT22;5863;52.832;4.758;2024-03-02T12:49:08;14.10;99.90
11615;DHT22;5863;52.832;4.758;2024-03-02T12:51:36;14.10;99.90
11615;DHT22;5863;52.832;4.758;2024-03-02T12:54:03;14.00;99.90
11615;DHT22;5863;52.832;4.758;2024-03-02T12:56:31;13.90;99.90
11615;DHT22;5863;52.832;4.758;2024-03-02T12:58:58;14.00;99.90
11615;DHT22;5863;52.832;4.758;2024-03-02T13:01:25;13.90;99.90
11615;DHT22;5863;52.832;4.758;2024-03-02T13:03:54;14.00;99.90
11615;DHT22;5863;52.832;4.758;2024-03-02T13:06:23;14.10;99.90
11615;DHT22;5863;52.832;4.758;2024-03-02T13:08:50;14.10;99.90
11615;DHT22;5863;52.832;4.758;2024-03-02T13:11:17;14.10;99.90
11615;DHT22;5863;52.832;4.758;2024-03-02T13:13:44;14.20;99.90
11615;DHT22;5863;52.832;4.758;2024-03-02T13:16:11;14.30;99.90
11615;DHT22;5863;52.832;4.758;2024-03-02T13:18:38;14.30;99.90
11615;DHT22;5863;52.832;4.758;2024-03-02T13:21:07;14.40;99.90
11615;DHT22;5863;52.832;4.758;2024-03-02T13:23:35;14.30;99.90
11615;DHT22;5863;52.832;4.758;2024-03-02T13:26:02;14.30;99.90
11615;DHT22;5863;52.832;4.758;2024-03-02T13:28:29;14.20;99.90
11615;DHT22;5863;52.832;4.758;2024-03-02T13:30:56;14.30;99.90
11615;DHT22;5863;52.832;4.758;2024-03-02T13:33:23;14.30;99.90
11615;DHT22;5863;52.832;4.758;2024-03-02T13:35:50;14.20;99.90
11615;DHT22;5863;52.832;4.758;2024-03-02T13:38:19;14.30;99.90
11615;DHT22;5863;52.832;4.758;2024-03-02T13:40:48;14.30;99.90
11615;DHT22;5863;52.832;4.758;2024-03-02T13:43:17;14.20;99.90
11615;DHT22;5863;52.832;4.758;2024-03-02T13:45:44;14.10;99.90
11615;DHT22;5863;52.832;4.758;2024-03-02T13:48:11;14.10;99.90
11615;DHT22;5863;52.832;4.758;2024-03-02T13:50:38;14.10;99.90
11615;DHT22;5863;52.832;4.758;2024-03-02T13:53:05;14.10;99.90
11615;DHT22;5863;52.832;4.758;2024-03-02T13:55:33;14.00;99.90
11615;DHT22;5863;52.832;4.758;2024-03-02T13:58:00;14.00;99.90
11615;DHT22;5863;52.832;4.758;2024-03-02T14:00:27;13.90;99.90
11615;DHT22;5863;52.832;4.758;2024-03-02T14:02:54;13.90;99.90
11615;DHT22;5863;52.832;4.758;2024-03-02T14:05:21;13.90;99.90
11615;DHT22;5863;52.832;4.758;2024-03-02T14:07:48;13.90;99.90
11615;DHT22;5863;52.832;4.758;2024-03-02T14:10:15;13.90;99.90
11615;DHT22;5863;52.832;4.758;2024-03-02T14:12:44;13.90;99.90
11615;DHT22;5863;52.832;4.758;2024-03-02T14:15:11;13.80;99.90
11615;DHT22;5863;52.832;4.758;2024-03-02T14:17:38;13.70;99.90
11615;DHT22;5863;52.832;4.758;2024-03-02T14:20:07;13.50;99.90
11615;DHT22;5863;52.832;4.758;2024-03-02T14:22:35;13.40;99.90
11615;DHT22;5863;52.832;4.758;2024-03-02T14:25:03;13.20;99.90
11615;DHT22;5863;52.832;4.758;2024-03-02T14:27:30;13.10;99.90
11615;DHT22;5863;52.832;4.758;2024-03-02T14:29:58;13.00;99.90
11615;DHT22;5863;52.832;4.758;2024-03-02T14:32:25;12.90;99.90
11615;DHT22;5863;52.832;4.758;2024-03-02T14:34:52;12.80;99.90
11615;DHT22;5863;52.832;4.758;2024-03-02T14:37:19;12.80;99.90
11615;DHT22;5863;52.832;4.758;2024-03-02T14:39:47;12.70;99.90
11615;DHT22;5863;52.832;4.758;2024-03-02T14:42:14;12.50;99.90
11615;DHT22;5863;52.832;4.758;2024-03-02T14:44:41;12.50;99.90
11615;DHT22;5863;52.832;4.758;2024-03-02T14:47:09;12.40;99.90
11615;DHT22;5863;52.832;4.758;2024-03-02T14:49:36;12.40;99.90
11615;DHT22;5863;52.832;4.758;2024-03-02T14:52:06;12.40;99.90
11615;DHT22;5863;52.832;4.758;2024-03-02T14:54:33;12.30;99.90
11615;DHT22;5863;52.832;4.758;2024-03-02T14:57:01;12.30;99.90
11615;DHT22;5863;52.832;4.758;2024-03-02T14:59:28;12.30;99.90
11615;DHT22;5863;52.832;4.758;2024-03-02T15:01:55;12.30;99.90
11615;DHT22;5863;52.832;4.758;2024-03-02T15:04:23;12.20;99.90
11615;DHT22;5863;52.832;4.758;2024-03-02T15:06:50;12.20;99.90
11615;DHT22;5863;52.832;4.758;2024-03-02T15:09:17;12.20;99.90
11615;DHT22;5863;52.832;4.758;2024-03-02T15:11:45;12.20;99.90
11615;DHT22;5863;52.832;4.758;2024-03-02T15:14:12;12.20;99.90
11615;DHT22;5863;52.832;4.758;2024-03-02T15:16:40;12.20;99.90
11615;DHT22;5863;52.832;4.758;2024-03-02T15:19:07;12.10;99.90
11615;DHT22;5863;52.832;4.758;2024-03-02T15:21:36;12.10;99.90
11615;DHT22;5863;52.832;4.758;2024-03-02T15:24:03;12.20;99.90
11615;DHT22;5863;52.832;4.758;2024-03-02T15:26:30;12.10;99.90
11615;DHT22;5863;52.832;4.758;2024-03-02T15:28:57;12.10;99.90
11615;DHT22;5863;52.832;4.758;2024-03-02T15:31:24;12.10;99.90
11615;DHT22;5863;52.832;4.758;2024-03-02T15:33:52;12.10;99.90
11615;DHT22;5863;52.832;4.758;2024-03-02T15:36:21;12.10;99.90
11615;DHT22;5863;52.832;4.758;2024-03-02T15:38:49;12.10;99.90
11615;DHT22;5863;52.832;4.758;2024-03-02T15:41:16;12.10;99.90
11615;DHT22;5863;52.832;4.758;2024-03-02T15:43:43;12.10;99.90
11615;DHT22;5863;52.832;4.758;2024-03-02T15:46:10;12.10;99.90
11615;DHT22;5863;52.832;4.758;2024-03-02T15:48:37;12.10;99.90
11615;DHT22;5863;52.832;4.758;2024-03-02T15:51:04;12.10;99.90
11615;DHT22;5863;52.832;4.758;2024-03-02T15:53:31;12.10;99.90
11615;DHT22;5863;52.832;4.758;2024-03-02T15:55:59;12.10;99.90
11615;DHT22;5863;52.832;4.758;2024-03-02T15:58:26;12.00;99.90